createdAt,value
2022-12-18T00:02:15.058Z,13.90
2022-12-18T00:07:22.977Z,12.70
2022-12-18T00:12:30.105Z,12.27
2022-12-18T00:17:37.001Z,13.60
2022-12-18T00:22:45.834Z,13.00
2022-12-18T00:27:52.259Z,12.98
2022-12-18T00:32:59.121Z,12.00
2022-12-18T00:38:08.093Z,12.68
2022-12-18T00:43:16.539Z,13.35
2022-12-18T00:48:23.531Z,11.50
2022-12-18T00:53:31.849Z,13.35
2022-12-18T00:58:38.327Z,14.48
2022-12-18T01:03:46.426Z,13.40
2022-12-18T01:08:54.530Z,12.77
2022-12-18T01:14:01.960Z,13.10
2022-12-18T01:19:08.761Z,13.23
2022-12-18T01:24:16.922Z,11.48
2022-12-18T01:29:23.289Z,12.77
2022-12-18T01:34:29.809Z,13.52
2022-12-18T01:39:37.719Z,13.00
2022-12-18T01:45:08.384Z,12.40
2022-12-18T01:50:19.251Z,13.10
2022-12-18T01:55:32.301Z,12.77
2022-12-18T02:00:38.597Z,13.35
2022-12-18T02:05:53.612Z,12.07
2022-12-18T02:11:10.899Z,13.18
2022-12-18T02:16:27.274Z,14.23
2022-12-18T02:21:48.893Z,14.02
2022-12-18T02:27:02.969Z,12.45
2022-12-18T02:32:16.580Z,12.93
2022-12-18T02:37:24.655Z,13.35
2022-12-18T02:42:35.202Z,13.90
2022-12-18T02:47:48.811Z,10.93
2022-12-18T02:53:17.218Z,12.70
2022-12-18T02:58:35.439Z,13.57
2022-12-18T03:03:54.614Z,12.48
2022-12-18T03:09:06.382Z,13.25
2022-12-18T03:14:18.832Z,11.30
2022-12-18T03:19:32.163Z,13.40
2022-12-18T03:24:40.881Z,12.18
2022-12-18T03:29:54.263Z,13.63
2022-12-18T03:35:08.466Z,9.63
2022-12-18T03:40:17.350Z,12.65
2022-12-18T03:45:34.440Z,12.50
2022-12-18T03:50:50.038Z,12.85
2022-12-18T03:56:02.033Z,12.20
2022-12-18T04:01:18.040Z,11.13
2022-12-18T04:06:25.592Z,11.90
2022-12-18T04:11:32.465Z,13.27
2022-12-18T04:16:42.457Z,7.40
2022-12-18T04:21:53.078Z,10.98
2022-12-18T04:26:59.725Z,11.20
2022-12-18T04:32:13.479Z,9.68
2022-12-18T04:37:22.777Z,10.27
2022-12-18T04:42:30.698Z,9.15
2022-12-18T04:47:38.499Z,9.57
2022-12-18T04:52:44.784Z,10.67
2022-12-18T04:57:53.385Z,11.30
2022-12-18T05:03:03.327Z,9.25
2022-12-18T05:08:10.236Z,11.88
2022-12-18T05:13:17.303Z,10.80
2022-12-18T05:18:25.521Z,10.25
2022-12-18T05:23:31.918Z,10.00
2022-12-18T05:28:39.397Z,11.15
2022-12-18T05:33:47.293Z,11.45
2022-12-18T05:38:54.110Z,11.40
2022-12-18T05:44:01.869Z,10.50
2022-12-18T05:49:09.564Z,12.00
2022-12-18T05:54:15.931Z,12.80
2022-12-18T05:59:22.239Z,9.65
2022-12-18T06:04:30.626Z,12.30
2022-12-18T06:09:37.240Z,12.38
2022-12-18T06:14:43.762Z,13.05
2022-12-18T06:19:51.801Z,12.80
2022-12-18T06:24:58.322Z,15.15
2022-12-18T06:30:04.971Z,14.65
2022-12-18T06:35:13.321Z,14.13
2022-12-18T06:40:20.010Z,16.45
2022-12-18T06:45:26.668Z,17.17
2022-12-18T06:50:34.899Z,16.75
2022-12-18T06:55:41.331Z,16.48
2022-12-18T07:00:48.053Z,15.18
2022-12-18T07:05:55.792Z,16.25
2022-12-18T07:11:02.103Z,19.05
2022-12-18T07:16:17.149Z,19.02
2022-12-18T07:21:29.056Z,17.52
2022-12-18T07:26:35.824Z,17.13
2022-12-18T07:31:42.546Z,17.13
2022-12-18T07:36:50.513Z,17.35
2022-12-18T07:42:14.478Z,17.60
2022-12-18T07:47:20.994Z,17.27
2022-12-18T07:52:28.966Z,18.52
2022-12-18T07:57:50.540Z,16.03
2022-12-18T08:02:57.992Z,15.52
2022-12-18T08:08:06.145Z,17.10
2022-12-18T08:13:12.678Z,16.83
2022-12-18T08:18:19.164Z,15.75
2022-12-18T08:23:39.287Z,19.05
2022-12-18T08:28:49.087Z,16.33
2022-12-18T08:33:57.236Z,17.20
2022-12-18T08:39:05.198Z,17.05
2022-12-18T08:44:29.433Z,13.50
2022-12-18T08:49:36.469Z,18.63
2022-12-18T08:54:44.351Z,16.90
2022-12-18T08:59:50.951Z,17.50
2022-12-18T09:04:57.908Z,16.55
2022-12-18T09:10:07.110Z,15.98
2022-12-18T09:15:14.234Z,16.30
2022-12-18T09:20:20.647Z,14.27
2022-12-18T09:25:33.048Z,15.38
2022-12-18T09:30:41.639Z,16.35
2022-12-18T09:41:01.393Z,16.77
2022-12-18T09:46:13.722Z,16.08
2022-12-18T09:51:27.176Z,15.68
2022-12-18T09:56:40.476Z,16.70
2022-12-18T10:01:47.506Z,16.17
2022-12-18T10:07:08.905Z,19.15
2022-12-18T10:12:26.532Z,16.10
2022-12-18T10:17:45.818Z,15.85
2022-12-18T10:23:04.188Z,17.73
2022-12-18T10:28:16.859Z,17.45
2022-12-18T10:33:26.339Z,18.20
2022-12-18T10:38:34.614Z,16.67
2022-12-18T10:43:43.366Z,17.92
2022-12-18T10:48:57.891Z,17.70
2022-12-18T10:54:09.508Z,17.63
2022-12-18T10:59:20.421Z,18.65
2022-12-18T11:04:29.798Z,18.90
2022-12-18T11:09:38.929Z,17.70
2022-12-18T11:14:51.472Z,18.98
2022-12-18T11:19:59.500Z,17.90
2022-12-18T11:30:40.093Z,19.00
2022-12-18T11:35:52.813Z,19.17
2022-12-18T11:41:06.196Z,16.48
2022-12-18T11:46:20.308Z,17.88
2022-12-18T11:51:37.516Z,18.00
2022-12-18T11:56:50.497Z,21.02
2022-12-18T12:02:06.453Z,23.65
2022-12-18T12:07:32.213Z,19.98
2022-12-18T12:12:56.270Z,20.08
2022-12-18T12:18:16.779Z,17.10
2022-12-18T12:23:36.924Z,16.00
2022-12-18T12:29:24.150Z,16.08
2022-12-18T12:34:41.941Z,16.73
2022-12-18T12:39:50.712Z,12.80
2022-12-18T12:45:01.729Z,17.92
2022-12-18T12:50:21.851Z,16.70
2022-12-18T12:55:31.917Z,16.30
2022-12-18T13:00:52.427Z,18.55
2022-12-18T13:06:05.813Z,18.95
2022-12-18T13:17:32.301Z,21.00
2022-12-18T13:22:44.780Z,19.95
2022-12-18T13:28:12.887Z,20.67
2022-12-18T13:34:24.001Z,18.85
2022-12-18T13:39:43.335Z,20.17
2022-12-18T15:05:02.438Z,21.55
2022-12-18T15:10:16.894Z,19.08
2022-12-18T15:15:51.973Z,20.17
2022-12-18T15:21:11.238Z,21.10
2022-12-18T15:26:26.067Z,20.88
2022-12-18T15:31:39.132Z,22.55
2022-12-18T15:36:49.474Z,20.60
2022-12-18T15:42:14.400Z,23.02
2022-12-18T15:47:23.922Z,22.38
2022-12-18T15:52:38.708Z,22.20
2022-12-18T15:57:47.981Z,20.85
2022-12-18T16:02:57.226Z,23.35
2022-12-18T16:08:09.214Z,23.10
2022-12-18T16:13:25.233Z,24.42
2022-12-18T16:18:34.450Z,23.08
2022-12-18T16:23:47.848Z,23.05
2022-12-18T16:28:57.052Z,23.38
2022-12-18T16:34:28.567Z,23.25
2022-12-18T16:39:40.229Z,23.67
2022-12-18T16:44:49.684Z,21.13
2022-12-18T16:50:00.779Z,22.67
2022-12-18T16:55:16.291Z,21.77
2022-12-18T17:00:29.529Z,25.10
2022-12-18T17:05:42.407Z,23.33
2022-12-18T17:10:52.867Z,21.80
2022-12-18T17:16:07.728Z,22.30
2022-12-18T17:21:18.242Z,22.50
2022-12-18T17:26:43.704Z,23.48
2022-12-18T17:31:54.624Z,24.80
2022-12-18T17:37:07.388Z,24.48
2022-12-18T17:42:20.445Z,25.77
2022-12-18T17:47:31.513Z,25.50
2022-12-18T17:52:41.393Z,23.15
2022-12-18T17:57:53.071Z,21.65
2022-12-18T18:03:05.439Z,22.95
2022-12-18T18:08:15.329Z,25.27
2022-12-18T18:13:47.174Z,23.40
2022-12-18T18:18:56.592Z,22.08
2022-12-18T18:24:06.103Z,19.98
2022-12-18T18:29:19.986Z,18.88
2022-12-18T18:34:31.535Z,21.00
2022-12-18T18:39:44.476Z,21.33
2022-12-18T18:44:56.019Z,23.20
2022-12-18T18:50:07.276Z,21.63
2022-12-18T18:55:25.768Z,23.05
2022-12-18T19:00:37.402Z,20.60
2022-12-18T19:05:47.688Z,21.08
2022-12-18T19:10:58.183Z,21.30
2022-12-18T19:16:11.587Z,18.13
2022-12-18T19:21:22.043Z,18.50
2022-12-18T19:26:31.376Z,17.27
2022-12-18T19:31:42.303Z,17.58
2022-12-18T19:36:53.926Z,17.20
2022-12-18T19:42:07.721Z,17.58
2022-12-18T19:47:18.338Z,17.63
2022-12-18T19:52:27.457Z,19.13
2022-12-18T19:57:36.616Z,16.75
2022-12-18T20:02:47.795Z,18.65
2022-12-18T20:07:59.214Z,19.65
2022-12-18T20:13:08.482Z,18.52
2022-12-18T20:18:18.948Z,21.63
2022-12-18T20:23:29.795Z,19.13
2022-12-18T20:28:41.788Z,17.58
2022-12-18T20:34:01.737Z,20.70
2022-12-18T20:39:12.191Z,19.20
2022-12-18T20:44:24.002Z,17.83
2022-12-18T20:49:36.548Z,18.52
2022-12-18T20:54:45.153Z,17.25
2022-12-18T20:59:51.743Z,15.73
2022-12-18T21:05:00.097Z,14.85
2022-12-18T21:10:10.516Z,12.90
2022-12-18T21:15:17.609Z,15.00
2022-12-18T21:20:26.084Z,12.77
2022-12-18T21:25:32.770Z,14.23
2022-12-18T21:35:49.071Z,11.35
2022-12-18T21:40:56.235Z,12.77
2022-12-18T21:46:03.114Z,14.93
2022-12-18T21:51:11.381Z,12.90
2022-12-18T21:56:17.792Z,11.80
2022-12-18T22:01:24.324Z,12.20
2022-12-18T22:06:42.993Z,11.88
2022-12-18T22:11:50.538Z,12.38
2022-12-18T22:16:57.919Z,12.05
2022-12-18T22:22:06.730Z,12.60
2022-12-18T22:27:13.285Z,12.52
2022-12-18T22:32:30.808Z,13.75
2022-12-18T22:37:39.562Z,13.57
2022-12-18T22:42:46.092Z,12.52
2022-12-18T22:47:52.997Z,14.38
2022-12-18T22:53:01.021Z,13.07
2022-12-18T22:58:07.517Z,12.50
2022-12-18T23:03:14.032Z,12.45
2022-12-18T23:08:21.819Z,10.63
2022-12-18T23:13:29.622Z,10.25
2022-12-18T23:18:36.610Z,10.47
2022-12-18T23:23:45.258Z,10.32
2022-12-18T23:28:53.370Z,10.80
2022-12-18T23:34:01.675Z,10.88
2022-12-18T23:39:10.300Z,10.55
2022-12-18T23:49:22.857Z,10.60
2022-12-18T23:54:33.440Z,9.90
2022-12-18T23:59:40.364Z,10.77
